Nanticoke, Canada
Current Conditions -  °F | °C
As of 3:30 PM on Thursday 27 Nov 2014 (Local Time) from CYHM Reporting Station
Snow Showers Snow Showers  
Wind Chill: 26°   Ceiling: 2800
Heat Index: 34°   Visibility: 6mi
Dew Point: 27°   Wind: 9mph
Humidity: 75%   Direction: 280°W
Pressure: 30.04"   Gusts: NA
Location:  42.81°N, 80.07°W
Report Text: CYHM 272030Z 28008KT 6SM -SHSN BR SCT012 OVC028 01/M03 A3004 RMK SF3SC5 SLP183
Loading
Personal Weather Stations






























Interactive Weather Map New forecast layout! Learn more

10-Day Weather Forecast

Advertisements
Track Severe Weather on mobile